sensor_id;sensor_type;location;lat;lon;timestamp;P1;durP1;ratioP1;P2;durP2;ratioP2
63499;SDS011;49654;51.142;14.924;2022-11-15T00:02:24;33.60;;;24.27;;
63499;SDS011;49654;51.142;14.924;2022-11-15T00:04:51;35.22;;;25.13;;
63499;SDS011;49654;51.142;14.924;2022-11-15T00:07:18;36.22;;;25.75;;
63499;SDS011;49654;51.142;14.924;2022-11-15T00:09:46;36.95;;;25.73;;
63499;SDS011;49654;51.142;14.924;2022-11-15T00:12:13;39.33;;;27.23;;
63499;SDS011;49654;51.142;14.924;2022-11-15T00:14:40;36.47;;;26.08;;
63499;SDS011;49654;51.142;14.924;2022-11-15T00:17:07;31.52;;;24.20;;
63499;SDS011;49654;51.142;14.924;2022-11-15T00:19:34;34.75;;;25.30;;
63499;SDS011;49654;51.142;14.924;2022-11-15T00:22:01;37.20;;;26.38;;
63499;SDS011;49654;51.142;14.924;2022-11-15T00:24:28;38.20;;;27.23;;
63499;SDS011;49654;51.142;14.924;2022-11-15T00:26:57;34.28;;;25.70;;
63499;SDS011;49654;51.142;14.924;2022-11-15T00:29:24;36.38;;;26.55;;
63499;SDS011;49654;51.142;14.924;2022-11-15T00:31:51;37.25;;;25.58;;
63499;SDS011;49654;51.142;14.924;2022-11-15T00:34:19;36.65;;;25.58;;
63499;SDS011;49654;51.142;14.924;2022-11-15T00:36:46;37.50;;;27.25;;
63499;SDS011;49654;51.142;14.924;2022-11-15T00:39:13;36.70;;;26.15;;
63499;SDS011;49654;51.142;14.924;2022-11-15T00:41:40;36.13;;;26.83;;
63499;SDS011;49654;51.142;14.924;2022-11-15T00:44:08;37.85;;;26.70;;
63499;SDS011;49654;51.142;14.924;2022-11-15T00:46:35;36.60;;;26.45;;
63499;SDS011;49654;51.142;14.924;2022-11-15T00:49:02;38.90;;;26.70;;
63499;SDS011;49654;51.142;14.924;2022-11-15T00:51:29;38.50;;;26.70;;
63499;SDS011;49654;51.142;14.924;2022-11-15T00:53:56;35.88;;;25.75;;
63499;SDS011;49654;51.142;14.924;2022-11-15T00:56:23;37.00;;;27.27;;
63499;SDS011;49654;51.142;14.924;2022-11-15T00:58:50;35.85;;;26.60;;
63499;SDS011;49654;51.142;14.924;2022-11-15T01:01:18;36.30;;;25.98;;
63499;SDS011;49654;51.142;14.924;2022-11-15T01:03:46;37.40;;;26.73;;
63499;SDS011;49654;51.142;14.924;2022-11-15T01:06:13;35.80;;;25.10;;
63499;SDS011;49654;51.142;14.924;2022-11-15T01:08:40;36.70;;;26.15;;
63499;SDS011;49654;51.142;14.924;2022-11-15T01:11:08;36.65;;;26.48;;
63499;SDS011;49654;51.142;14.924;2022-11-15T01:13:37;36.83;;;26.08;;
63499;SDS011;49654;51.142;14.924;2022-11-15T01:16:06;34.92;;;24.85;;
63499;SDS011;49654;51.142;14.924;2022-11-15T01:18:36;39.05;;;25.75;;
63499;SDS011;49654;51.142;14.924;2022-11-15T01:21:07;32.92;;;24.27;;
63499;SDS011;49654;51.142;14.924;2022-11-15T01:23:35;34.15;;;24.75;;
63499;SDS011;49654;51.142;14.924;2022-11-15T01:26:02;37.33;;;26.20;;
63499;SDS011;49654;51.142;14.924;2022-11-15T01:28:31;36.42;;;26.38;;
63499;SDS011;49654;51.142;14.924;2022-11-15T01:30:58;38.38;;;25.92;;
63499;SDS011;49654;51.142;14.924;2022-11-15T01:33:26;34.75;;;25.90;;
63499;SDS011;49654;51.142;14.924;2022-11-15T01:35:54;34.67;;;24.00;;
63499;SDS011;49654;51.142;14.924;2022-11-15T01:38:22;33.22;;;23.42;;
63499;SDS011;49654;51.142;14.924;2022-11-15T01:40:49;35.15;;;24.58;;
63499;SDS011;49654;51.142;14.924;2022-11-15T01:43:20;33.83;;;24.08;;
63499;SDS011;49654;51.142;14.924;2022-11-15T01:45:49;32.28;;;23.30;;
63499;SDS011;49654;51.142;14.924;2022-11-15T01:48:19;31.45;;;22.30;;
63499;SDS011;49654;51.142;14.924;2022-11-15T01:50:47;35.65;;;23.77;;
63499;SDS011;49654;51.142;14.924;2022-11-15T01:53:17;33.60;;;22.73;;
63499;SDS011;49654;51.142;14.924;2022-11-15T01:55:47;33.17;;;23.23;;
63499;SDS011;49654;51.142;14.924;2022-11-15T01:58:15;35.67;;;24.55;;
63499;SDS011;49654;51.142;14.924;2022-11-15T02:00:42;38.15;;;26.73;;
63499;SDS011;49654;51.142;14.924;2022-11-15T02:03:09;37.00;;;25.30;;
63499;SDS011;49654;51.142;14.924;2022-11-15T02:05:36;36.92;;;24.25;;
63499;SDS011;49654;51.142;14.924;2022-11-15T02:08:04;36.90;;;25.55;;
63499;SDS011;49654;51.142;14.924;2022-11-15T02:10:34;40.38;;;27.27;;
63499;SDS011;49654;51.142;14.924;2022-11-15T02:13:01;41.50;;;27.13;;
63499;SDS011;49654;51.142;14.924;2022-11-15T02:15:30;35.90;;;25.33;;
63499;SDS011;49654;51.142;14.924;2022-11-15T02:18:07;36.45;;;26.02;;
63499;SDS011;49654;51.142;14.924;2022-11-15T02:20:43;33.13;;;24.10;;
63499;SDS011;49654;51.142;14.924;2022-11-15T02:26:32;39.03;;;26.52;;
63499;SDS011;49654;51.142;14.924;2022-11-15T02:29:21;36.67;;;25.05;;
63499;SDS011;49654;51.142;14.924;2022-11-15T02:32:02;38.40;;;25.65;;
63499;SDS011;49654;51.142;14.924;2022-11-15T02:34:35;34.78;;;24.70;;
63499;SDS011;49654;51.142;14.924;2022-11-15T02:37:14;36.30;;;25.77;;
63499;SDS011;49654;51.142;14.924;2022-11-15T02:39:46;37.22;;;26.73;;
63499;SDS011;49654;51.142;14.924;2022-11-15T02:42:18;40.40;;;26.95;;
63499;SDS011;49654;51.142;14.924;2022-11-15T02:45:06;39.35;;;26.77;;
63499;SDS011;49654;51.142;14.924;2022-11-15T02:47:41;38.42;;;27.48;;
63499;SDS011;49654;51.142;14.924;2022-11-15T02:50:11;39.67;;;26.92;;
63499;SDS011;49654;51.142;14.924;2022-11-15T02:52:44;40.08;;;27.38;;
63499;SDS011;49654;51.142;14.924;2022-11-15T02:55:27;43.42;;;27.73;;
63499;SDS011;49654;51.142;14.924;2022-11-15T02:57:59;40.97;;;27.52;;
63499;SDS011;49654;51.142;14.924;2022-11-15T03:00:38;39.92;;;27.73;;
63499;SDS011;49654;51.142;14.924;2022-11-15T03:03:22;40.63;;;28.23;;
63499;SDS011;49654;51.142;14.924;2022-11-15T03:06:10;41.72;;;28.52;;
63499;SDS011;49654;51.142;14.924;2022-11-15T03:08:49;41.33;;;27.80;;
63499;SDS011;49654;51.142;14.924;2022-11-15T03:11:23;40.08;;;27.55;;
63499;SDS011;49654;51.142;14.924;2022-11-15T03:13:53;40.25;;;27.60;;
63499;SDS011;49654;51.142;14.924;2022-11-15T03:16:25;39.00;;;28.65;;
63499;SDS011;49654;51.142;14.924;2022-11-15T03:18:59;44.67;;;28.15;;
63499;SDS011;49654;51.142;14.924;2022-11-15T03:21:32;38.10;;;27.73;;
63499;SDS011;49654;51.142;14.924;2022-11-15T03:24:02;39.95;;;27.38;;
63499;SDS011;49654;51.142;14.924;2022-11-15T03:26:33;39.97;;;28.02;;
63499;SDS011;49654;51.142;14.924;2022-11-15T03:29:04;38.65;;;27.17;;
63499;SDS011;49654;51.142;14.924;2022-11-15T03:31:36;38.67;;;27.08;;
63499;SDS011;49654;51.142;14.924;2022-11-15T03:34:19;38.70;;;27.83;;
63499;SDS011;49654;51.142;14.924;2022-11-15T03:36:51;39.45;;;27.80;;
63499;SDS011;49654;51.142;14.924;2022-11-15T03:39:19;39.35;;;27.08;;
63499;SDS011;49654;51.142;14.924;2022-11-15T03:41:48;37.33;;;27.23;;
63499;SDS011;49654;51.142;14.924;2022-11-15T03:44:26;42.97;;;28.85;;
63499;SDS011;49654;51.142;14.924;2022-11-15T03:47:06;42.30;;;29.15;;
63499;SDS011;49654;51.142;14.924;2022-11-15T03:49:38;43.85;;;29.45;;
63499;SDS011;49654;51.142;14.924;2022-11-15T03:52:10;42.75;;;28.88;;
63499;SDS011;49654;51.142;14.924;2022-11-15T03:54:47;43.42;;;29.33;;
63499;SDS011;49654;51.142;14.924;2022-11-15T03:57:14;43.33;;;29.15;;
63499;SDS011;49654;51.142;14.924;2022-11-15T03:59:41;43.17;;;28.92;;
63499;SDS011;49654;51.142;14.924;2022-11-15T04:02:09;42.05;;;29.40;;
63499;SDS011;49654;51.142;14.924;2022-11-15T04:04:37;41.47;;;29.02;;
63499;SDS011;49654;51.142;14.924;2022-11-15T04:07:04;44.13;;;28.70;;
63499;SDS011;49654;51.142;14.924;2022-11-15T04:09:31;41.05;;;28.15;;
63499;SDS011;49654;51.142;14.924;2022-11-15T04:11:58;46.03;;;30.17;;
63499;SDS011;49654;51.142;14.924;2022-11-15T04:14:25;44.78;;;29.00;;
63499;SDS011;49654;51.142;14.924;2022-11-15T04:16:52;46.60;;;30.85;;
63499;SDS011;49654;51.142;14.924;2022-11-15T04:19:19;43.00;;;28.98;;
63499;SDS011;49654;51.142;14.924;2022-11-15T04:22:07;39.58;;;27.52;;
63499;SDS011;49654;51.142;14.924;2022-11-15T04:24:52;40.53;;;28.15;;
63499;SDS011;49654;51.142;14.924;2022-11-15T04:27:19;41.53;;;28.50;;
63499;SDS011;49654;51.142;14.924;2022-11-15T04:29:46;41.47;;;28.40;;
63499;SDS011;49654;51.142;14.924;2022-11-15T04:32:13;44.00;;;29.30;;
63499;SDS011;49654;51.142;14.924;2022-11-15T04:34:40;42.33;;;29.70;;
63499;SDS011;49654;51.142;14.924;2022-11-15T04:37:08;40.25;;;29.15;;
63499;SDS011;49654;51.142;14.924;2022-11-15T04:39:37;44.63;;;30.27;;
63499;SDS011;49654;51.142;14.924;2022-11-15T04:42:04;48.03;;;29.88;;
63499;SDS011;49654;51.142;14.924;2022-11-15T04:44:31;42.50;;;30.00;;
63499;SDS011;49654;51.142;14.924;2022-11-15T04:46:59;44.40;;;29.63;;
63499;SDS011;49654;51.142;14.924;2022-11-15T04:49:27;40.63;;;27.23;;
63499;SDS011;49654;51.142;14.924;2022-11-15T04:51:54;45.33;;;30.15;;
63499;SDS011;49654;51.142;14.924;2022-11-15T04:54:22;42.40;;;28.95;;
63499;SDS011;49654;51.142;14.924;2022-11-15T04:56:49;44.00;;;29.67;;
63499;SDS011;49654;51.142;14.924;2022-11-15T04:59:16;45.75;;;29.90;;
63499;SDS011;49654;51.142;14.924;2022-11-15T05:01:43;44.88;;;29.83;;
63499;SDS011;49654;51.142;14.924;2022-11-15T05:04:10;44.78;;;29.17;;
63499;SDS011;49654;51.142;14.924;2022-11-15T05:06:46;43.80;;;30.27;;
63499;SDS011;49654;51.142;14.924;2022-11-15T05:09:14;44.90;;;29.90;;
63499;SDS011;49654;51.142;14.924;2022-11-15T05:11:43;46.60;;;29.65;;
63499;SDS011;49654;51.142;14.924;2022-11-15T05:14:10;42.25;;;29.08;;
63499;SDS011;49654;51.142;14.924;2022-11-15T05:16:37;44.65;;;29.73;;
63499;SDS011;49654;51.142;14.924;2022-11-15T05:19:05;42.60;;;29.67;;
63499;SDS011;49654;51.142;14.924;2022-11-15T05:21:32;45.50;;;29.92;;
63499;SDS011;49654;51.142;14.924;2022-11-15T05:24:00;43.15;;;29.83;;
63499;SDS011;49654;51.142;14.924;2022-11-15T05:26:28;44.30;;;29.13;;
63499;SDS011;49654;51.142;14.924;2022-11-15T05:28:57;45.17;;;30.00;;
63499;SDS011;49654;51.142;14.924;2022-11-15T05:31:26;40.40;;;27.42;;
63499;SDS011;49654;51.142;14.924;2022-11-15T05:33:53;44.03;;;29.85;;
63499;SDS011;49654;51.142;14.924;2022-11-15T05:36:25;44.65;;;30.52;;
63499;SDS011;49654;51.142;14.924;2022-11-15T05:38:58;43.50;;;29.17;;
63499;SDS011;49654;51.142;14.924;2022-11-15T05:41:26;43.50;;;28.67;;
63499;SDS011;49654;51.142;14.924;2022-11-15T05:43:58;44.30;;;28.17;;
63499;SDS011;49654;51.142;14.924;2022-11-15T05:46:28;38.83;;;27.20;;
63499;SDS011;49654;51.142;14.924;2022-11-15T05:48:56;43.55;;;28.38;;
63499;SDS011;49654;51.142;14.924;2022-11-15T05:51:23;38.92;;;26.75;;
63499;SDS011;49654;51.142;14.924;2022-11-15T05:53:51;41.17;;;27.33;;
63499;SDS011;49654;51.142;14.924;2022-11-15T05:56:19;38.13;;;26.88;;
63499;SDS011;49654;51.142;14.924;2022-11-15T05:58:47;41.63;;;28.52;;
63499;SDS011;49654;51.142;14.924;2022-11-15T06:01:15;37.28;;;26.60;;
63499;SDS011;49654;51.142;14.924;2022-11-15T06:03:42;41.80;;;28.08;;
63499;SDS011;49654;51.142;14.924;2022-11-15T06:06:09;43.92;;;27.77;;
63499;SDS011;49654;51.142;14.924;2022-11-15T06:08:36;41.42;;;27.23;;
63499;SDS011;49654;51.142;14.924;2022-11-15T06:11:04;42.92;;;28.40;;
63499;SDS011;49654;51.142;14.924;2022-11-15T06:13:31;38.72;;;26.17;;
63499;SDS011;49654;51.142;14.924;2022-11-15T06:15:58;40.00;;;27.23;;
63499;SDS011;49654;51.142;14.924;2022-11-15T06:18:27;38.38;;;26.40;;
63499;SDS011;49654;51.142;14.924;2022-11-15T06:20:57;38.25;;;26.63;;
63499;SDS011;49654;51.142;14.924;2022-11-15T06:23:25;40.90;;;26.80;;
63499;SDS011;49654;51.142;14.924;2022-11-15T06:25:52;40.67;;;27.40;;
63499;SDS011;49654;51.142;14.924;2022-11-15T06:28:19;38.35;;;26.65;;
63499;SDS011;49654;51.142;14.924;2022-11-15T06:30:46;39.67;;;27.00;;
63499;SDS011;49654;51.142;14.924;2022-11-15T06:33:13;43.00;;;27.43;;
63499;SDS011;49654;51.142;14.924;2022-11-15T06:35:41;36.35;;;25.52;;
63499;SDS011;49654;51.142;14.924;2022-11-15T06:38:09;36.50;;;25.80;;
63499;SDS011;49654;51.142;14.924;2022-11-15T06:40:37;37.17;;;25.92;;
63499;SDS011;49654;51.142;14.924;2022-11-15T06:43:05;40.63;;;27.17;;
63499;SDS011;49654;51.142;14.924;2022-11-15T06:45:32;41.75;;;28.23;;
63499;SDS011;49654;51.142;14.924;2022-11-15T06:48:00;39.38;;;26.48;;
63499;SDS011;49654;51.142;14.924;2022-11-15T06:50:27;41.00;;;27.42;;
63499;SDS011;49654;51.142;14.924;2022-11-15T06:52:55;37.22;;;25.10;;
63499;SDS011;49654;51.142;14.924;2022-11-15T06:55:27;39.03;;;25.77;;
63499;SDS011;49654;51.142;14.924;2022-11-15T06:57:54;39.25;;;26.35;;
63499;SDS011;49654;51.142;14.924;2022-11-15T07:00:21;37.85;;;26.75;;
63499;SDS011;49654;51.142;14.924;2022-11-15T07:02:49;38.08;;;26.80;;
63499;SDS011;49654;51.142;14.924;2022-11-15T07:05:16;40.25;;;27.08;;
63499;SDS011;49654;51.142;14.924;2022-11-15T07:07:45;38.22;;;26.77;;
63499;SDS011;49654;51.142;14.924;2022-11-15T07:10:19;37.42;;;26.35;;
63499;SDS011;49654;51.142;14.924;2022-11-15T07:12:46;38.42;;;27.13;;
63499;SDS011;49654;51.142;14.924;2022-11-15T07:15:14;40.97;;;27.27;;
63499;SDS011;49654;51.142;14.924;2022-11-15T07:17:41;39.08;;;26.58;;
63499;SDS011;49654;51.142;14.924;2022-11-15T07:20:08;37.28;;;26.40;;
63499;SDS011;49654;51.142;14.924;2022-11-15T07:22:36;38.95;;;26.65;;
63499;SDS011;49654;51.142;14.924;2022-11-15T07:25:03;37.50;;;25.17;;
63499;SDS011;49654;51.142;14.924;2022-11-15T07:27:32;37.53;;;25.95;;
63499;SDS011;49654;51.142;14.924;2022-11-15T07:29:59;37.80;;;26.15;;
63499;SDS011;49654;51.142;14.924;2022-11-15T07:32:26;36.08;;;24.90;;
63499;SDS011;49654;51.142;14.924;2022-11-15T07:34:54;35.53;;;24.67;;
63499;SDS011;49654;51.142;14.924;2022-11-15T07:37:21;36.85;;;25.67;;
63499;SDS011;49654;51.142;14.924;2022-11-15T07:39:48;34.95;;;25.67;;
63499;SDS011;49654;51.142;14.924;2022-11-15T07:42:15;35.33;;;24.65;;
63499;SDS011;49654;51.142;14.924;2022-11-15T07:44:57;34.30;;;24.85;;
63499;SDS011;49654;51.142;14.924;2022-11-15T07:47:24;36.47;;;25.08;;
63499;SDS011;49654;51.142;14.924;2022-11-15T07:49:51;36.88;;;25.80;;
63499;SDS011;49654;51.142;14.924;2022-11-15T07:52:18;39.45;;;26.73;;
63499;SDS011;49654;51.142;14.924;2022-11-15T07:54:45;34.47;;;25.02;;
63499;SDS011;49654;51.142;14.924;2022-11-15T07:57:12;40.08;;;27.13;;
63499;SDS011;49654;51.142;14.924;2022-11-15T07:59:39;35.38;;;24.42;;
63499;SDS011;49654;51.142;14.924;2022-11-15T08:02:09;38.47;;;26.33;;
63499;SDS011;49654;51.142;14.924;2022-11-15T08:04:36;35.78;;;25.13;;
63499;SDS011;49654;51.142;14.924;2022-11-15T08:07:03;36.85;;;26.00;;
63499;SDS011;49654;51.142;14.924;2022-11-15T08:09:30;32.00;;;23.30;;
63499;SDS011;49654;51.142;14.924;2022-11-15T08:11:57;31.40;;;23.05;;
63499;SDS011;49654;51.142;14.924;2022-11-15T08:14:24;32.28;;;22.50;;
63499;SDS011;49654;51.142;14.924;2022-11-15T08:16:51;30.02;;;22.67;;
63499;SDS011;49654;51.142;14.924;2022-11-15T08:19:19;31.17;;;22.70;;
63499;SDS011;49654;51.142;14.924;2022-11-15T08:21:46;32.22;;;22.77;;
63499;SDS011;49654;51.142;14.924;2022-11-15T08:24:13;29.67;;;21.77;;
63499;SDS011;49654;51.142;14.924;2022-11-15T08:26:41;27.65;;;21.40;;
63499;SDS011;49654;51.142;14.924;2022-11-15T08:29:08;30.25;;;21.83;;
63499;SDS011;49654;51.142;14.924;2022-11-15T08:31:35;30.45;;;22.52;;
63499;SDS011;49654;51.142;14.924;2022-11-15T08:34:03;29.40;;;21.77;;
63499;SDS011;49654;51.142;14.924;2022-11-15T08:36:32;27.83;;;22.25;;
63499;SDS011;49654;51.142;14.924;2022-11-15T08:38:59;27.65;;;20.95;;
63499;SDS011;49654;51.142;14.924;2022-11-15T08:41:26;30.25;;;22.70;;
63499;SDS011;49654;51.142;14.924;2022-11-15T08:43:57;29.05;;;22.45;;
63499;SDS011;49654;51.142;14.924;2022-11-15T08:46:24;28.63;;;21.52;;
63499;SDS011;49654;51.142;14.924;2022-11-15T08:48:51;30.92;;;22.25;;
63499;SDS011;49654;51.142;14.924;2022-11-15T08:51:18;33.40;;;22.92;;
63499;SDS011;49654;51.142;14.924;2022-11-15T08:53:46;31.60;;;23.15;;
63499;SDS011;49654;51.142;14.924;2022-11-15T08:56:14;30.98;;;22.55;;
63499;SDS011;49654;51.142;14.924;2022-11-15T08:58:41;28.70;;;22.00;;
63499;SDS011;49654;51.142;14.924;2022-11-15T09:01:14;33.03;;;22.42;;
63499;SDS011;49654;51.142;14.924;2022-11-15T09:03:42;29.88;;;22.00;;
63499;SDS011;49654;51.142;14.924;2022-11-15T09:06:09;32.67;;;23.58;;
63499;SDS011;49654;51.142;14.924;2022-11-15T09:08:37;29.45;;;22.02;;
63499;SDS011;49654;51.142;14.924;2022-11-15T09:11:05;28.42;;;21.08;;
63499;SDS011;49654;51.142;14.924;2022-11-15T09:13:33;32.10;;;22.30;;
63499;SDS011;49654;51.142;14.924;2022-11-15T09:16:02;31.60;;;21.40;;
63499;SDS011;49654;51.142;14.924;2022-11-15T09:18:30;29.50;;;21.67;;
63499;SDS011;49654;51.142;14.924;2022-11-15T09:20:58;30.48;;;21.77;;
63499;SDS011;49654;51.142;14.924;2022-11-15T09:23:27;30.05;;;21.48;;
63499;SDS011;49654;51.142;14.924;2022-11-15T09:25:58;30.48;;;22.38;;
63499;SDS011;49654;51.142;14.924;2022-11-15T09:28:27;31.42;;;22.67;;
63499;SDS011;49654;51.142;14.924;2022-11-15T09:30:55;30.08;;;22.42;;
63499;SDS011;49654;51.142;14.924;2022-11-15T09:33:24;29.85;;;21.90;;
63499;SDS011;49654;51.142;14.924;2022-11-15T09:35:51;30.63;;;21.50;;
63499;SDS011;49654;51.142;14.924;2022-11-15T09:38:19;29.25;;;21.77;;
63499;SDS011;49654;51.142;14.924;2022-11-15T09:40:47;27.95;;;21.52;;
63499;SDS011;49654;51.142;14.924;2022-11-15T09:43:25;29.65;;;21.92;;
63499;SDS011;49654;51.142;14.924;2022-11-15T09:46:02;29.77;;;21.30;;
63499;SDS011;49654;51.142;14.924;2022-11-15T09:48:45;26.85;;;20.75;;
63499;SDS011;49654;51.142;14.924;2022-11-15T09:51:24;29.88;;;21.40;;
63499;SDS011;49654;51.142;14.924;2022-11-15T09:54:00;29.17;;;20.92;;
63499;SDS011;49654;51.142;14.924;2022-11-15T09:56:31;29.20;;;20.10;;
63499;SDS011;49654;51.142;14.924;2022-11-15T09:59:07;29.48;;;21.60;;
63499;SDS011;49654;51.142;14.924;2022-11-15T10:01:45;28.08;;;21.10;;
63499;SDS011;49654;51.142;14.924;2022-11-15T10:04:20;27.23;;;20.67;;
63499;SDS011;49654;51.142;14.924;2022-11-15T10:06:51;28.67;;;20.55;;
63499;SDS011;49654;51.142;14.924;2022-11-15T10:09:23;27.20;;;20.75;;
63499;SDS011;49654;51.142;14.924;2022-11-15T10:11:52;28.77;;;20.75;;
63499;SDS011;49654;51.142;14.924;2022-11-15T10:14:22;27.73;;;20.73;;
63499;SDS011;49654;51.142;14.924;2022-11-15T10:16:57;28.02;;;21.02;;
63499;SDS011;49654;51.142;14.924;2022-11-15T10:19:34;28.30;;;21.30;;
63499;SDS011;49654;51.142;14.924;2022-11-15T10:22:15;30.05;;;21.13;;
63499;SDS011;49654;51.142;14.924;2022-11-15T10:24:48;27.17;;;20.27;;
63499;SDS011;49654;51.142;14.924;2022-11-15T10:27:19;28.42;;;22.13;;
63499;SDS011;49654;51.142;14.924;2022-11-15T10:29:49;28.98;;;21.52;;
63499;SDS011;49654;51.142;14.924;2022-11-15T10:32:17;27.58;;;21.70;;
63499;SDS011;49654;51.142;14.924;2022-11-15T10:34:46;27.38;;;21.02;;
63499;SDS011;49654;51.142;14.924;2022-11-15T10:37:14;30.05;;;21.52;;
63499;SDS011;49654;51.142;14.924;2022-11-15T10:39:41;29.13;;;22.45;;
63499;SDS011;49654;51.142;14.924;2022-11-15T10:42:15;29.15;;;21.80;;
63499;SDS011;49654;51.142;14.924;2022-11-15T10:44:44;30.77;;;21.77;;
63499;SDS011;49654;51.142;14.924;2022-11-15T10:47:26;29.10;;;20.85;;
63499;SDS011;49654;51.142;14.924;2022-11-15T10:50:00;28.23;;;20.27;;
63499;SDS011;49654;51.142;14.924;2022-11-15T10:52:30;28.52;;;20.30;;
63499;SDS011;49654;51.142;14.924;2022-11-15T10:55:01;26.38;;;19.67;;
63499;SDS011;49654;51.142;14.924;2022-11-15T10:57:32;25.48;;;18.45;;
63499;SDS011;49654;51.142;14.924;2022-11-15T11:00:03;25.35;;;18.95;;
63499;SDS011;49654;51.142;14.924;2022-11-15T11:02:35;24.02;;;19.45;;
63499;SDS011;49654;51.142;14.924;2022-11-15T11:05:04;24.23;;;18.63;;
63499;SDS011;49654;51.142;14.924;2022-11-15T11:07:33;24.27;;;18.58;;
63499;SDS011;49654;51.142;14.924;2022-11-15T11:10:03;26.40;;;19.35;;
63499;SDS011;49654;51.142;14.924;2022-11-15T11:12:33;26.27;;;19.30;;
63499;SDS011;49654;51.142;14.924;2022-11-15T11:15:05;26.70;;;19.73;;
63499;SDS011;49654;51.142;14.924;2022-11-15T11:17:43;24.80;;;19.00;;
63499;SDS011;49654;51.142;14.924;2022-11-15T11:20:25;22.92;;;18.13;;
63499;SDS011;49654;51.142;14.924;2022-11-15T11:25:49;23.85;;;18.73;;
63499;SDS011;49654;51.142;14.924;2022-11-15T11:28:28;24.90;;;19.08;;
63499;SDS011;49654;51.142;14.924;2022-11-15T11:31:07;24.55;;;18.58;;
63499;SDS011;49654;51.142;14.924;2022-11-15T11:33:47;26.05;;;19.33;;
63499;SDS011;49654;51.142;14.924;2022-11-15T11:36:25;24.02;;;18.25;;
63499;SDS011;49654;51.142;14.924;2022-11-15T11:39:00;25.58;;;18.08;;
63499;SDS011;49654;51.142;14.924;2022-11-15T11:41:47;24.70;;;18.98;;
63499;SDS011;49654;51.142;14.924;2022-11-15T11:44:24;23.83;;;18.67;;
63499;SDS011;49654;51.142;14.924;2022-11-15T11:47:03;24.35;;;18.80;;
63499;SDS011;49654;51.142;14.924;2022-11-15T11:49:39;25.80;;;19.17;;
63499;SDS011;49654;51.142;14.924;2022-11-15T11:52:12;25.95;;;18.67;;
63499;SDS011;49654;51.142;14.924;2022-11-15T11:54:46;24.88;;;19.50;;
63499;SDS011;49654;51.142;14.924;2022-11-15T11:57:23;26.40;;;19.77;;
63499;SDS011;49654;51.142;14.924;2022-11-15T11:59:58;23.23;;;18.77;;
63499;SDS011;49654;51.142;14.924;2022-11-15T12:02:30;25.15;;;19.73;;
63499;SDS011;49654;51.142;14.924;2022-11-15T12:05:07;26.73;;;19.95;;
63499;SDS011;49654;51.142;14.924;2022-11-15T12:07:38;29.58;;;20.23;;
63499;SDS011;49654;51.142;14.924;2022-11-15T12:10:12;26.65;;;20.58;;
63499;SDS011;49654;51.142;14.924;2022-11-15T12:12:49;28.23;;;21.23;;
63499;SDS011;49654;51.142;14.924;2022-11-15T12:15:23;25.90;;;19.77;;
63499;SDS011;49654;51.142;14.924;2022-11-15T12:17:53;26.20;;;19.48;;
63499;SDS011;49654;51.142;14.924;2022-11-15T12:20:24;24.73;;;18.58;;
63499;SDS011;49654;51.142;14.924;2022-11-15T12:22:54;25.25;;;19.85;;
63499;SDS011;49654;51.142;14.924;2022-11-15T12:25:26;27.13;;;19.23;;
63499;SDS011;49654;51.142;14.924;2022-11-15T12:27:59;23.90;;;17.88;;
63499;SDS011;49654;51.142;14.924;2022-11-15T12:30:37;25.75;;;19.88;;
63499;SDS011;49654;51.142;14.924;2022-11-15T12:35:59;27.25;;;19.60;;
63499;SDS011;49654;51.142;14.924;2022-11-15T12:41:20;27.92;;;20.98;;
63499;SDS011;49654;51.142;14.924;2022-11-15T12:43:48;28.02;;;21.88;;
63499;SDS011;49654;51.142;14.924;2022-11-15T12:46:20;29.23;;;22.13;;
63499;SDS011;49654;51.142;14.924;2022-11-15T12:49:08;30.85;;;22.88;;
63499;SDS011;49654;51.142;14.924;2022-11-15T12:57:30;31.50;;;23.98;;
63499;SDS011;49654;51.142;14.924;2022-11-15T13:00:04;32.13;;;23.50;;
63499;SDS011;49654;51.142;14.924;2022-11-15T13:02:46;30.10;;;22.70;;
63499;SDS011;49654;51.142;14.924;2022-11-15T13:08:39;28.25;;;21.00;;
63499;SDS011;49654;51.142;14.924;2022-11-15T13:17:32;29.70;;;22.00;;
63499;SDS011;49654;51.142;14.924;2022-11-15T13:23:00;29.80;;;22.40;;
63499;SDS011;49654;51.142;14.924;2022-11-15T13:28:47;30.92;;;22.67;;
63499;SDS011;49654;51.142;14.924;2022-11-15T13:31:19;28.67;;;22.40;;
63499;SDS011;49654;51.142;14.924;2022-11-15T13:33:50;28.30;;;22.52;;
63499;SDS011;49654;51.142;14.924;2022-11-15T13:36:19;26.60;;;21.23;;
63499;SDS011;49654;51.142;14.924;2022-11-15T13:38:55;30.23;;;22.67;;
63499;SDS011;49654;51.142;14.924;2022-11-15T13:41:25;25.65;;;20.25;;
63499;SDS011;49654;51.142;14.924;2022-11-15T13:43:55;27.25;;;22.08;;
63499;SDS011;49654;51.142;14.924;2022-11-15T13:46:24;31.67;;;24.27;;
63499;SDS011;49654;51.142;14.924;2022-11-15T13:48:53;28.67;;;23.10;;
63499;SDS011;49654;51.142;14.924;2022-11-15T13:51:25;28.60;;;22.77;;
63499;SDS011;49654;51.142;14.924;2022-11-15T13:53:58;29.13;;;22.77;;
63499;SDS011;49654;51.142;14.924;2022-11-15T13:56:28;29.13;;;22.27;;
63499;SDS011;49654;51.142;14.924;2022-11-15T13:58:59;29.08;;;22.70;;
63499;SDS011;49654;51.142;14.924;2022-11-15T14:01:28;29.38;;;22.42;;
63499;SDS011;49654;51.142;14.924;2022-11-15T14:03:58;30.77;;;23.42;;
63499;SDS011;49654;51.142;14.924;2022-11-15T14:06:28;30.42;;;24.00;;
63499;SDS011;49654;51.142;14.924;2022-11-15T14:08:58;31.27;;;24.48;;
63499;SDS011;49654;51.142;14.924;2022-11-15T14:11:48;33.50;;;25.05;;
63499;SDS011;49654;51.142;14.924;2022-11-15T14:14:19;33.88;;;25.50;;
63499;SDS011;49654;51.142;14.924;2022-11-15T14:16:48;32.45;;;24.92;;
63499;SDS011;49654;51.142;14.924;2022-11-15T14:19:34;36.50;;;25.23;;
63499;SDS011;49654;51.142;14.924;2022-11-15T14:22:16;38.38;;;26.20;;
63499;SDS011;49654;51.142;14.924;2022-11-15T14:24:47;36.10;;;26.98;;
63499;SDS011;49654;51.142;14.924;2022-11-15T14:27:29;40.25;;;28.60;;
63499;SDS011;49654;51.142;14.924;2022-11-15T14:29:57;39.05;;;28.38;;
63499;SDS011;49654;51.142;14.924;2022-11-15T14:32:25;41.35;;;28.67;;
63499;SDS011;49654;51.142;14.924;2022-11-15T14:34:54;41.10;;;28.73;;
63499;SDS011;49654;51.142;14.924;2022-11-15T14:37:23;42.92;;;28.75;;
63499;SDS011;49654;51.142;14.924;2022-11-15T14:39:52;41.17;;;28.40;;
63499;SDS011;49654;51.142;14.924;2022-11-15T14:42:20;44.40;;;29.30;;
63499;SDS011;49654;51.142;14.924;2022-11-15T14:44:49;42.10;;;29.65;;
63499;SDS011;49654;51.142;14.924;2022-11-15T14:47:18;43.28;;;29.52;;
63499;SDS011;49654;51.142;14.924;2022-11-15T14:49:45;47.92;;;31.02;;
63499;SDS011;49654;51.142;14.924;2022-11-15T14:52:23;48.17;;;31.58;;
63499;SDS011;49654;51.142;14.924;2022-11-15T14:54:53;47.97;;;31.38;;
63499;SDS011;49654;51.142;14.924;2022-11-15T14:57:20;50.63;;;33.28;;
63499;SDS011;49654;51.142;14.924;2022-11-15T14:59:47;52.05;;;32.95;;
63499;SDS011;49654;51.142;14.924;2022-11-15T15:02:16;52.10;;;32.78;;